Belmont, North Carolina
Current Conditions -  °F | °C
As of 9:52 PM on Wednesday 22 Oct 2014 (Local Time) from KCLT Reporting Station
Clear Clear  
Wind Chill:   Ceiling: Unl
Heat Index:   Visibility: 10mi
Dew Point:   Wind: 7mph
Humidity: 66%   Direction: 310°NW
Pressure: 30.1"   Gusts: NA
Location:  35.24°N, 81.04°W
Report Text: KCLT 230152Z 31006KT 10SM CLR 09/03 A3010 RMK AO2 SLP192 T00940033
Loading
Personal Weather Stations






























Interactive Weather Map
Tropical Storm Tracking
New forecast layout! Learn more

10-Day Weather Forecast

Advertisements
Track Severe Weather on mobile